Time;durP1;ratioP1;P1;durP2;ratioP2;P2;SDS_P1;SDS_P2;PMS_P1;PMS_P2;Temp;Humidity;BMP_temperature;BMP_pressure;BME280_temperature;BME280_humidity;BME280_pressure;Samples;Min_cycle;Max_cycle;Signal;HPM_P1;HPM_P2
2024/03/05 00:00:14;;;;;;;31.33;23.85;;;10.20;99.90;;;;;;4925462;29;20597;-76
2024/03/05 00:02:42;;;;;;;36.88;24.58;;;10.20;99.90;;;;;;4936046;29;20173;-76
2024/03/05 00:05:08;;;;;;;29.48;22.38;;;10.20;99.90;;;;;;4936638;29;20189;-75
2024/03/05 00:07:35;;;;;;;32.65;21.13;;;10.10;99.90;;;;;;4936099;29;20268;-75
2024/03/05 00:10:02;;;;;;;39.00;27.50;;;10.10;99.90;;;;;;4936476;29;20224;-75
2024/03/05 00:12:29;;;;;;;31.38;22.50;;;10.10;99.90;;;;;;4936516;29;20173;-76
2024/03/05 00:14:55;;;;;;;35.40;24.35;;;10.10;99.90;;;;;;4936415;29;20205;-75
2024/03/05 00:17:23;;;;;;;37.38;24.73;;;10.00;99.90;;;;;;4935161;29;20307;-75
2024/03/05 00:19:50;;;;;;;27.98;21.42;;;10.00;99.90;;;;;;4935227;29;20184;-75
2024/03/05 00:22:16;;;;;;;33.28;23.77;;;10.00;99.90;;;;;;4935286;29;20639;-75
2024/03/05 00:24:42;;;;;;;30.40;21.70;;;10.00;99.90;;;;;;4936406;29;20193;-75
2024/03/05 00:27:09;;;;;;;31.90;23.70;;;10.00;99.90;;;;;;4935595;29;20201;-75
2024/03/05 00:29:35;;;;;;;31.05;23.10;;;9.90;99.90;;;;;;4952581;29;20196;-75
2024/03/05 00:32:00;;;;;;;31.80;22.67;;;9.90;99.90;;;;;;4919959;29;20189;-75
2024/03/05 00:34:26;;;;;;;34.33;22.73;;;9.90;99.90;;;;;;4942675;29;20236;-75
2024/03/05 00:36:52;;;;;;;32.70;23.57;;;9.80;99.90;;;;;;4935789;29;20601;-76
2024/03/05 00:39:19;;;;;;;33.97;23.23;;;9.80;99.90;;;;;;4934831;29;20209;-76
2024/03/05 00:41:46;;;;;;;33.50;24.13;;;9.80;99.90;;;;;;4934850;29;20283;-76
2024/03/05 00:44:12;;;;;;;32.38;23.80;;;9.80;99.90;;;;;;4934653;29;20578;-76
2024/03/05 00:46:37;;;;;;;40.10;26.35;;;9.80;99.90;;;;;;4933588;29;20181;-76
2024/03/05 00:49:03;;;;;;;36.23;25.10;;;9.70;99.90;;;;;;4933259;29;20742;-77
2024/03/05 00:51:29;;;;;;;36.30;23.10;;;9.70;99.90;;;;;;4948477;29;20272;-76
2024/03/05 00:53:55;;;;;;;36.47;25.13;;;9.70;99.90;;;;;;4934827;29;20283;-77
2024/03/05 00:56:22;;;;;;;33.80;25.27;;;9.70;99.90;;;;;;4934608;29;20571;-77
2024/03/05 00:58:47;;;;;;;33.97;23.35;;;9.70;99.90;;;;;;4933702;29;20563;-75
2024/03/05 01:01:13;;;;;;;35.53;24.87;;;9.70;99.90;;;;;;4933883;29;20196;-75
2024/03/05 01:03:39;;;;;;;40.20;26.33;;;9.70;99.90;;;;;;4935045;29;20182;-74
2024/03/05 01:06:06;;;;;;;37.27;25.83;;;9.70;99.90;;;;;;4934001;29;20285;-74
2024/03/05 01:08:32;;;;;;;32.92;23.27;;;9.80;99.90;;;;;;4926964;29;20229;-74
2024/03/05 01:10:59;;;;;;;35.55;25.85;;;9.80;99.90;;;;;;4938498;29;20191;-74
2024/03/05 01:13:26;;;;;;;35.80;25.52;;;9.80;99.90;;;;;;4934980;29;20240;-75
2024/03/05 01:15:52;;;;;;;34.22;23.58;;;9.80;99.90;;;;;;4949124;29;20176;-75
2024/03/05 01:18:18;;;;;;;33.45;24.52;;;9.80;99.90;;;;;;4935041;28;20703;-74
2024/03/05 01:20:44;;;;;;;35.83;25.27;;;9.80;99.90;;;;;;4933736;29;20170;-74
2024/03/05 01:23:13;;;;;;;31.73;22.87;;;9.90;99.90;;;;;;4933523;29;20260;-74
2024/03/05 01:25:39;;;;;;;30.90;23.10;;;9.80;99.90;;;;;;4933362;29;20195;-74
2024/03/05 01:28:05;;;;;;;29.90;23.40;;;9.90;99.90;;;;;;4934833;29;20204;-75
2024/03/05 01:30:31;;;;;;;33.00;23.37;;;9.90;99.90;;;;;;4926719;29;20260;-75
2024/03/05 01:32:57;;;;;;;35.67;23.23;;;9.80;99.90;;;;;;4942432;29;20675;-74
2024/03/05 01:35:23;;;;;;;28.53;20.67;;;9.90;99.90;;;;;;4914481;29;20357;-74
2024/03/05 01:37:49;;;;;;;32.75;21.95;;;9.80;99.90;;;;;;4935948;29;20755;-74
2024/03/05 01:40:15;;;;;;;30.33;21.47;;;9.90;99.90;;;;;;4934231;29;20267;-76
2024/03/05 01:42:40;;;;;;;26.63;20.03;;;9.90;99.90;;;;;;4934041;29;20596;-76
2024/03/05 01:45:07;;;;;;;27.50;21.00;;;9.90;99.90;;;;;;4933422;29;20201;-76
2024/03/05 01:47:33;;;;;;;34.45;22.95;;;9.80;99.90;;;;;;4934325;29;20585;-76
2024/03/05 01:50:00;;;;;;;35.20;24.10;;;9.80;99.90;;;;;;4935212;29;20181;-77
2024/03/05 01:52:27;;;;;;;37.30;25.40;;;9.80;99.90;;;;;;4916437;29;20611;-76
2024/03/05 01:54:55;;;;;;;32.72;22.88;;;9.70;99.90;;;;;;4933857;29;20200;-76
2024/03/05 01:57:23;;;;;;;30.73;23.13;;;9.70;99.90;;;;;;4933082;29;20824;-76
2024/03/05 01:59:50;;;;;;;33.35;22.70;;;9.70;99.90;;;;;;4932719;29;20181;-76
2024/03/05 02:02:15;;;;;;;31.60;21.90;;;9.70;99.90;;;;;;4932315;29;20188;-76
2024/03/05 02:04:43;;;;;;;33.53;24.33;;;9.60;99.90;;;;;;4932788;29;20200;-75
2024/03/05 02:07:09;;;;;;;30.40;22.88;;;9.60;99.90;;;;;;4933283;29;20181;-73
2024/03/05 02:09:36;;;;;;;38.78;24.60;;;9.60;99.90;;;;;;4931756;29;20177;-73
2024/03/05 02:12:02;;;;;;;34.60;22.83;;;9.60;99.90;;;;;;4932113;29;20663;-73
2024/03/05 02:14:30;;;;;;;31.20;22.47;;;9.50;99.90;;;;;;4932494;29;20197;-73
2024/03/05 02:16:57;;;;;;;32.47;21.80;;;9.50;99.90;;;;;;4932318;29;20592;-73
2024/03/05 02:19:23;;;;;;;28.55;21.30;;;9.50;99.90;;;;;;4931293;29;20177;-73
2024/03/05 02:22:02;;;;;;;35.77;24.00;;;9.60;99.90;;;;;;4933272;29;20176;-73
2024/03/05 02:24:31;;;;;;;35.83;25.92;;;9.60;99.90;;;;;;4933231;29;20715;-73
2024/03/05 02:27:00;;;;;;;33.25;24.27;;;9.60;99.90;;;;;;4951238;29;20181;-73
2024/03/05 02:29:26;;;;;;;34.65;22.00;;;9.60;99.90;;;;;;4923960;29;20268;-73
2024/03/05 02:31:52;;;;;;;29.47;22.87;;;9.60;99.90;;;;;;4933076;29;20277;-74
2024/03/05 02:34:18;;;;;;;36.40;23.53;;;9.60;99.90;;;;;;4931908;29;21260;-74
2024/03/05 02:36:44;;;;;;;34.97;23.20;;;9.60;99.90;;;;;;4932764;29;20577;-74
2024/03/05 02:39:09;;;;;;;34.63;23.60;;;9.60;99.90;;;;;;4932609;29;20577;-74
2024/03/05 02:41:36;;;;;;;39.00;26.70;;;9.60;99.90;;;;;;4933088;29;20228;-74
2024/03/05 02:44:03;;;;;;;33.00;25.75;;;9.70;99.90;;;;;;4931683;29;20696;-74
2024/03/05 02:46:29;;;;;;;31.40;22.23;;;9.60;99.90;;;;;;4931334;29;20249;-74
2024/03/05 02:48:55;;;;;;;34.97;24.80;;;9.60;99.90;;;;;;4962622;28;20176;-74
2024/03/05 02:51:21;;;;;;;32.63;23.63;;;9.70;99.90;;;;;;4943854;29;20662;-74
2024/03/05 02:53:46;;;;;;;44.20;29.60;;;9.70;99.90;;;;;;4946482;29;20696;-74
2024/03/05 02:56:12;;;;;;;36.47;24.30;;;9.60;99.90;;;;;;4948614;28;20192;-74
2024/03/05 02:58:39;;;;;;;35.55;24.15;;;9.60;99.90;;;;;;4941647;29;20263;-74
2024/03/05 03:01:07;;;;;;;38.35;25.80;;;9.60;99.90;;;;;;4962573;28;20598;-75
2024/03/05 03:03:34;;;;;;;34.55;23.95;;;9.60;99.90;;;;;;4947062;29;20228;-75
2024/03/05 03:06:02;;;;;;;32.95;22.88;;;9.60;99.90;;;;;;4947438;29;20268;-74
2024/03/05 03:08:28;;;;;;;31.13;23.58;;;9.60;99.90;;;;;;4950831;29;20181;-74
2024/03/05 03:10:55;;;;;;;37.70;25.65;;;9.60;99.90;;;;;;4919714;29;20223;-74
2024/03/05 03:13:23;;;;;;;35.58;26.10;;;9.60;99.90;;;;;;4936937;29;20192;-74
2024/03/05 03:15:49;;;;;;;39.38;26.60;;;9.70;99.90;;;;;;4951557;29;20264;-74
2024/03/05 03:18:15;;;;;;;38.60;27.15;;;9.60;99.90;;;;;;4934134;29;20213;-74
2024/03/05 03:20:41;;;;;;;33.23;23.90;;;9.60;99.90;;;;;;4934233;29;20200;-74
2024/03/05 03:23:07;;;;;;;34.70;24.63;;;9.70;99.90;;;;;;4934382;29;20597;-74
2024/03/05 03:25:32;;;;;;;36.47;26.00;;;9.60;99.90;;;;;;4935257;29;20615;-74
2024/03/05 03:27:58;;;;;;;39.43;27.33;;;9.60;99.90;;;;;;4935630;29;20189;-74
2024/03/05 03:30:27;;;;;;;38.40;25.67;;;9.60;99.90;;;;;;4950266;29;20272;-74
2024/03/05 03:32:53;;;;;;;35.75;25.60;;;9.60;99.90;;;;;;4935247;29;20189;-74
2024/03/05 03:35:20;;;;;;;37.20;25.17;;;9.60;99.90;;;;;;4935486;29;20639;-74
2024/03/05 03:37:46;;;;;;;41.45;26.55;;;9.60;99.90;;;;;;4934926;29;20236;-74
2024/03/05 03:40:21;;;;;;;46.55;26.65;;;9.60;99.90;;;;;;4939879;29;20587;-74
2024/03/05 03:42:48;;;;;;;35.83;24.85;;;9.60;99.90;;;;;;4951071;29;20263;-74
2024/03/05 03:45:15;;;;;;;35.80;24.50;;;9.60;99.90;;;;;;4934816;29;20240;-74
2024/03/05 03:47:41;;;;;;;35.75;24.40;;;9.60;99.90;;;;;;4934134;29;20187;-74
2024/03/05 03:50:07;;;;;;;32.28;22.60;;;9.60;99.90;;;;;;4918563;29;20177;-74
2024/03/05 03:52:33;;;;;;;35.20;23.90;;;9.60;99.90;;;;;;4950970;29;20181;-74
2024/03/05 03:54:59;;;;;;;35.50;25.35;;;9.60;99.90;;;;;;4936012;29;20611;-74
2024/03/05 03:57:26;;;;;;;34.10;23.97;;;9.60;99.90;;;;;;4934189;29;20213;-75
2024/03/05 03:59:53;;;;;;;38.00;26.02;;;9.70;99.90;;;;;;4935977;29;20585;-74
2024/03/05 04:02:21;;;;;;;40.92;26.27;;;9.70;99.90;;;;;;4934499;29;20185;-74
2024/03/05 04:04:47;;;;;;;34.60;24.58;;;9.70;99.90;;;;;;4935570;29;20273;-74
2024/03/05 04:07:13;;;;;;;32.22;21.98;;;9.70;99.90;;;;;;4935412;29;20200;-74
2024/03/05 04:09:39;;;;;;;37.57;23.70;;;9.80;99.90;;;;;;4949580;28;20181;-74
2024/03/05 04:12:07;;;;;;;34.97;22.92;;;9.80;99.90;;;;;;4934206;29;20643;-74
2024/03/05 04:14:32;;;;;;;35.97;26.92;;;9.80;99.90;;;;;;4934396;29;20219;-74
2024/03/05 04:16:58;;;;;;;39.30;26.33;;;9.80;99.90;;;;;;4954222;29;20181;-74
2024/03/05 04:19:24;;;;;;;43.07;25.90;;;9.90;99.90;;;;;;4933310;29;20177;-74
2024/03/05 04:21:50;;;;;;;39.50;25.20;;;9.90;99.90;;;;;;4935296;29;20200;-74
2024/03/05 04:24:17;;;;;;;44.35;27.25;;;9.90;99.90;;;;;;4935218;29;20212;-74
2024/03/05 04:26:48;;;;;;;43.88;27.52;;;9.90;99.90;;;;;;4918366;29;20656;-74
2024/03/05 04:29:19;;;;;;;43.72;26.98;;;9.90;99.90;;;;;;4933861;29;20264;-74
2024/03/05 04:31:55;;;;;;;39.50;25.67;;;9.90;99.90;;;;;;4935020;29;20580;-74
2024/03/05 04:34:21;;;;;;;36.67;24.63;;;9.80;99.90;;;;;;4933503;29;20235;-74
2024/03/05 04:36:49;;;;;;;43.22;24.83;;;9.90;99.90;;;;;;4949901;29;20534;-74
2024/03/05 04:39:15;;;;;;;38.85;25.10;;;9.90;99.90;;;;;;4934419;29;20193;-74
2024/03/05 04:41:44;;;;;;;33.30;25.02;;;9.90;99.90;;;;;;4935020;29;20268;-75
2024/03/05 04:44:10;;;;;;;39.08;26.02;;;9.90;99.90;;;;;;4933521;29;20221;-75
2024/03/05 04:46:35;;;;;;;35.57;22.50;;;9.90;99.90;;;;;;4933662;29;20181;-74
2024/03/05 04:49:06;;;;;;;37.97;23.90;;;9.90;99.90;;;;;;4934140;29;20181;-74
2024/03/05 04:51:32;;;;;;;40.22;25.83;;;10.00;99.90;;;;;;4933453;29;20177;-75
2024/03/05 04:53:57;;;;;;;37.83;24.93;;;10.00;99.90;;;;;;4921933;29;20291;-75
2024/03/05 04:56:23;;;;;;;35.50;23.40;;;10.00;99.90;;;;;;4934817;29;20657;-75
2024/03/05 04:58:49;;;;;;;32.27;22.30;;;10.00;99.90;;;;;;4934048;29;20951;-75
2024/03/05 05:01:14;;;;;;;39.07;25.37;;;10.10;99.90;;;;;;4933459;29;20192;-75
2024/03/05 05:03:42;;;;;;;44.57;26.60;;;10.10;99.90;;;;;;4934522;29;20197;-74
2024/03/05 05:06:09;;;;;;;37.83;25.85;;;10.10;99.90;;;;;;4933545;29;20656;-74
2024/03/05 05:08:35;;;;;;;37.35;25.13;;;10.10;99.90;;;;;;4941092;29;20184;-74
2024/03/05 05:11:01;;;;;;;36.55;23.75;;;10.00;99.90;;;;;;4934078;29;20236;-74
2024/03/05 05:13:27;;;;;;;37.53;26.00;;;10.00;99.90;;;;;;4932850;29;20643;-74
2024/03/05 05:15:54;;;;;;;40.40;26.80;;;10.00;99.90;;;;;;4933968;29;21062;-74
2024/03/05 05:18:20;;;;;;;43.72;27.83;;;10.00;99.90;;;;;;4932093;29;20213;-74
2024/03/05 05:20:46;;;;;;;38.90;26.03;;;10.00;99.90;;;;;;4931870;29;20659;-75
2024/03/05 05:23:12;;;;;;;38.90;24.88;;;10.00;99.90;;;;;;4933653;29;20581;-76
2024/03/05 05:25:38;;;;;;;42.95;26.38;;;10.00;99.90;;;;;;4932620;29;20561;-77
2024/03/05 05:28:05;;;;;;;41.13;27.87;;;10.00;99.90;;;;;;4934034;29;20181;-76
2024/03/05 05:30:31;;;;;;;38.78;24.52;;;10.00;99.90;;;;;;4934337;29;20328;-76
2024/03/05 05:32:57;;;;;;;46.17;28.00;;;10.00;99.90;;;;;;4933843;29;20272;-74
2024/03/05 05:35:23;;;;;;;41.50;26.98;;;10.00;99.90;;;;;;4915073;29;20640;-74
2024/03/05 05:37:49;;;;;;;34.70;22.90;;;10.00;99.90;;;;;;4937821;29;20212;-74
2024/03/05 05:40:16;;;;;;;37.17;24.90;;;10.00;99.90;;;;;;4931295;29;20588;-74
2024/03/05 05:42:47;;;;;;;36.70;25.35;;;10.00;99.90;;;;;;4931485;29;20180;-74
2024/03/05 05:45:12;;;;;;;42.50;26.58;;;10.00;99.90;;;;;;4946535;28;20205;-76
2024/03/05 05:47:49;;;;;;;38.17;25.57;;;10.00;99.90;;;;;;4933247;29;20184;-74
2024/03/05 05:50:17;;;;;;;37.25;25.00;;;10.00;99.90;;;;;;4932270;29;20572;-74
2024/03/05 05:52:53;;;;;;;35.80;24.50;;;10.00;99.90;;;;;;4933955;29;20177;-77
2024/03/05 05:55:24;;;;;;;36.10;22.05;;;10.00;99.90;;;;;;4933664;29;20204;-74
2024/03/05 05:57:51;;;;;;;36.95;25.10;;;10.00;99.90;;;;;;4931284;29;20215;-75
2024/03/05 06:00:36;;;;;;;33.00;22.27;;;10.00;99.90;;;;;;4932295;29;20209;-74
2024/03/05 06:03:07;;;;;;;35.08;23.75;;;10.10;99.90;;;;;;4948116;28;20260;-75
2024/03/05 06:05:36;;;;;;;38.08;24.15;;;10.10;99.90;;;;;;4933195;29;20208;-74
2024/03/05 06:08:13;;;;;;;31.73;22.10;;;10.10;99.90;;;;;;4932652;29;20181;-75
2024/03/05 06:10:41;;;;;;;39.63;24.10;;;10.10;99.90;;;;;;4933511;29;20247;-75
2024/03/05 06:13:07;;;;;;;40.33;27.08;;;10.10;99.90;;;;;;4933743;29;20189;-75
2024/03/05 06:15:38;;;;;;;40.30;25.52;;;10.10;99.90;;;;;;4933480;29;20745;-74
2024/03/05 06:18:05;;;;;;;36.85;23.05;;;10.20;99.90;;;;;;4933049;29;20624;-75
2024/03/05 06:20:32;;;;;;;44.22;27.10;;;10.20;99.90;;;;;;4947945;29;20181;-75
2024/03/05 06:22:59;;;;;;;39.13;25.98;;;10.20;99.90;;;;;;4933563;29;20172;-74
2024/03/05 06:25:25;;;;;;;44.63;28.10;;;10.20;99.90;;;;;;4933502;29;20201;-74
2024/03/05 06:27:52;;;;;;;37.15;23.60;;;10.20;99.90;;;;;;4932437;29;20210;-75
2024/03/05 06:30:18;;;;;;;47.38;29.48;;;10.20;99.90;;;;;;4931759;29;20177;-75
2024/03/05 06:32:48;;;;;;;44.37;27.70;;;10.20;99.90;;;;;;4933136;29;20232;-75
2024/03/05 06:35:24;;;;;;;42.15;26.95;;;10.20;99.90;;;;;;4933073;29;20299;-74
2024/03/05 06:37:51;;;;;;;46.17;29.75;;;10.20;99.90;;;;;;4932830;29;20280;-75
2024/03/05 06:40:19;;;;;;;44.97;28.48;;;10.10;99.90;;;;;;4932856;29;20196;-75
2024/03/05 06:43:03;;;;;;;45.08;29.50;;;10.10;99.90;;;;;;4933097;29;20241;-74
2024/03/05 06:45:29;;;;;;;44.28;27.70;;;10.10;99.90;;;;;;4951770;28;20607;-74
2024/03/05 06:47:56;;;;;;;45.90;29.95;;;10.10;99.90;;;;;;4931715;29;20240;-75
2024/03/05 06:50:36;;;;;;;46.60;28.38;;;10.10;99.90;;;;;;4932734;29;20212;-74
2024/03/05 06:58:34;;;;;;;42.97;26.35;;;10.10;99.90;;;;;;4931306;29;20220;-76
2024/03/05 07:01:07;;;;;;;38.42;25.90;;;10.10;99.90;;;;;;4933487;29;20183;-78
2024/03/05 07:03:34;;;;;;;37.83;23.63;;;10.10;99.90;;;;;;4933459;29;20199;-77
2024/03/05 07:06:07;;;;;;;38.50;26.30;;;10.20;99.90;;;;;;4932106;29;20232;-74
2024/03/05 07:08:40;;;;;;;47.22;27.67;;;10.20;99.90;;;;;;4932500;29;20682;-73
2024/03/05 07:11:09;;;;;;;37.17;24.23;;;10.20;99.90;;;;;;4931137;29;20216;-74
2024/03/05 07:13:36;;;;;;;40.10;24.83;;;10.20;99.90;;;;;;4947233;29;20216;-73
2024/03/05 07:16:03;;;;;;;46.03;27.70;;;10.20;99.90;;;;;;4915510;29;20181;-74
2024/03/05 07:18:29;;;;;;;49.25;27.65;;;10.20;99.90;;;;;;4931112;29;20212;-73
2024/03/05 07:20:55;;;;;;;47.53;28.07;;;10.20;99.90;;;;;;4930809;29;20260;-74
2024/03/05 07:23:21;;;;;;;45.47;27.27;;;10.20;99.90;;;;;;4937166;29;20177;-74
2024/03/05 07:25:47;;;;;;;43.78;27.55;;;10.30;99.90;;;;;;4933015;29;20208;-74
2024/03/05 07:28:15;;;;;;;45.05;29.40;;;10.30;99.90;;;;;;4931407;29;20272;-74
2024/03/05 07:30:42;;;;;;;41.40;29.48;;;10.20;99.90;;;;;;4932249;29;20182;-74
2024/03/05 07:33:12;;;;;;;49.70;34.30;;;10.20;99.90;;;;;;4931485;29;20746;-74
2024/03/05 07:35:37;;;;;;;42.65;28.80;;;10.20;99.90;;;;;;4931537;29;20255;-74
2024/03/05 07:38:04;;;;;;;51.43;30.47;;;10.30;99.90;;;;;;4932788;29;20248;-73
2024/03/05 07:40:29;;;;;;;44.92;26.60;;;10.30;99.90;;;;;;4933126;29;20632;-74
2024/03/05 07:42:55;;;;;;;55.57;30.80;;;10.30;99.90;;;;;;4947638;28;20547;-74
2024/03/05 07:45:22;;;;;;;46.73;30.50;;;10.30;99.90;;;;;;4936433;29;20237;-75
2024/03/05 07:47:49;;;;;;;49.97;29.90;;;10.30;99.90;;;;;;4934949;29;20639;-75
2024/03/05 07:50:15;;;;;;;38.97;25.40;;;10.30;99.90;;;;;;4936263;29;20181;-75
2024/03/05 07:52:43;;;;;;;41.70;26.02;;;10.30;99.90;;;;;;4935618;29;20185;-75
2024/03/05 07:55:11;;;;;;;39.25;25.17;;;10.30;99.90;;;;;;4933831;29;20193;-75
2024/03/05 07:57:40;;;;;;;38.50;24.60;;;10.30;99.90;;;;;;4934519;29;20209;-75
2024/03/05 08:00:11;;;;;;;44.00;26.45;;;10.30;99.90;;;;;;4950641;28;20189;-75
2024/03/05 08:02:42;;;;;;;49.08;29.00;;;10.30;99.90;;;;;;4935223;29;20554;-75
2024/03/05 08:05:09;;;;;;;44.22;29.25;;;10.30;99.90;;;;;;4935575;29;20615;-75
2024/03/05 08:07:35;;;;;;;39.97;26.15;;;10.30;99.90;;;;;;4948866;29;20307;-74
2024/03/05 08:10:09;;;;;;;41.65;26.33;;;10.30;99.90;;;;;;4949719;29;20176;-73
2024/03/05 08:12:35;;;;;;;38.13;25.25;;;10.30;99.90;;;;;;4934569;29;20185;-73
2024/03/05 08:15:03;;;;;;;41.22;26.52;;;10.30;99.90;;;;;;4935127;29;20255;-73
2024/03/05 08:17:31;;;;;;;38.85;25.52;;;10.30;99.90;;;;;;4933633;29;20209;-73
2024/03/05 08:19:57;;;;;;;36.90;24.13;;;10.40;99.90;;;;;;4935397;29;20161;-73
2024/03/05 08:22:23;;;;;;;40.87;24.47;;;10.40;99.90;;;;;;4935177;29;20196;-73
2024/03/05 08:24:49;;;;;;;38.53;24.48;;;10.40;99.90;;;;;;4949584;28;20625;-74
2024/03/05 08:27:15;;;;;;;42.73;24.80;;;10.50;99.90;;;;;;4918262;29;20207;-74
2024/03/05 08:29:42;;;;;;;40.45;25.15;;;10.50;99.90;;;;;;4935425;29;21088;-73
2024/03/05 08:32:09;;;;;;;43.65;27.75;;;10.50;99.90;;;;;;4934328;29;20185;-75
2024/03/05 08:34:37;;;;;;;39.53;23.90;;;10.50;99.90;;;;;;4934935;29;21335;-75
2024/03/05 08:37:02;;;;;;;42.67;25.98;;;10.60;99.90;;;;;;4929920;29;20180;-75
2024/03/05 08:39:28;;;;;;;39.17;25.77;;;10.60;99.90;;;;;;4933298;29;20181;-75
2024/03/05 08:41:54;;;;;;;36.83;24.90;;;10.60;99.90;;;;;;4935159;29;20599;-74
2024/03/05 08:44:19;;;;;;;38.77;25.40;;;10.60;99.90;;;;;;4934735;29;20240;-74
2024/03/05 08:46:45;;;;;;;38.70;25.90;;;10.60;99.90;;;;;;4927347;29;20256;-73
2024/03/05 08:49:11;;;;;;;49.43;26.77;;;10.60;99.90;;;;;;4943005;29;20192;-74
2024/03/05 08:51:38;;;;;;;39.10;24.37;;;10.60;99.90;;;;;;4942012;29;20189;-73
2024/03/05 08:54:08;;;;;;;44.55;26.83;;;10.70;99.90;;;;;;4934886;29;20688;-73
2024/03/05 08:56:37;;;;;;;43.53;26.40;;;10.70;99.90;;;;;;4934442;29;20671;-73
2024/03/05 08:59:06;;;;;;;53.85;29.80;;;10.70;99.90;;;;;;4955353;28;20274;-73
2024/03/05 09:01:35;;;;;;;37.25;24.45;;;10.60;99.90;;;;;;4959548;28;20180;-73
2024/03/05 09:04:03;;;;;;;39.35;27.05;;;10.50;99.90;;;;;;4935097;29;20216;-73
2024/03/05 09:06:30;;;;;;;44.03;27.17;;;10.50;99.90;;;;;;4942937;29;20180;-73
2024/03/05 09:08:56;;;;;;;40.83;25.30;;;10.50;99.90;;;;;;4935008;29;20219;-74
2024/03/05 09:11:22;;;;;;;41.13;25.23;;;10.50;99.90;;;;;;4934989;29;20689;-73
2024/03/05 09:13:48;;;;;;;38.63;24.17;;;10.50;99.90;;;;;;4934911;29;20197;-73
2024/03/05 09:16:13;;;;;;;40.50;24.73;;;10.50;99.90;;;;;;4949838;29;20640;-73
2024/03/05 09:18:40;;;;;;;40.27;25.50;;;10.60;99.90;;;;;;4933333;29;20273;-74
2024/03/05 09:21:09;;;;;;;39.50;24.70;;;10.60;99.90;;;;;;4949550;29;21218;-73
2024/03/05 09:23:36;;;;;;;40.70;23.80;;;10.70;99.90;;;;;;4933591;29;20643;-74
2024/03/05 09:26:03;;;;;;;42.00;25.10;;;10.70;99.90;;;;;;4933304;29;20271;-74
2024/03/05 09:28:31;;;;;;;40.58;25.30;;;10.70;99.90;;;;;;4934373;29;20562;-74
2024/03/05 09:30:57;;;;;;;37.58;22.67;;;10.70;99.90;;;;;;4934497;29;20644;-73
2024/03/05 09:33:24;;;;;;;45.07;26.20;;;10.70;99.90;;;;;;4948975;29;20223;-72
2024/03/05 09:35:50;;;;;;;34.58;22.60;;;10.70;99.90;;;;;;4933807;29;20220;-73
2024/03/05 09:38:16;;;;;;;49.70;27.05;;;10.70;99.90;;;;;;4933921;29;20211;-73
2024/03/05 09:40:42;;;;;;;43.10;27.85;;;10.70;99.90;;;;;;4932992;29;20185;-72
2024/03/05 09:43:09;;;;;;;41.45;25.90;;;10.60;99.90;;;;;;4948596;29;20181;-73
2024/03/05 09:45:37;;;;;;;42.13;27.67;;;10.60;99.90;;;;;;4934024;29;20197;-73
2024/03/05 09:48:04;;;;;;;42.50;24.98;;;10.70;99.90;;;;;;4932461;29;20185;-73
2024/03/05 09:50:33;;;;;;;42.13;29.00;;;10.70;99.90;;;;;;4933448;29;20217;-73
2024/03/05 09:53:02;;;;;;;42.25;25.55;;;10.70;99.90;;;;;;4933926;29;20181;-74
2024/03/05 09:55:28;;;;;;;40.67;26.85;;;10.70;99.90;;;;;;4933780;29;20690;-74
2024/03/05 09:57:55;;;;;;;55.47;35.73;;;10.70;99.90;;;;;;4930903;29;20757;-73
2024/03/05 10:00:22;;;;;;;52.72;32.72;;;10.70;99.90;;;;;;4932733;29;20700;-74
2024/03/05 10:02:51;;;;;;;47.58;26.77;;;10.70;99.90;;;;;;4964966;28;20261;-74
2024/03/05 10:05:22;;;;;;;43.50;27.08;;;10.70;99.90;;;;;;4925892;29;20586;-74
2024/03/05 10:07:48;;;;;;;42.95;26.27;;;10.80;99.90;;;;;;4934159;29;20265;-74
2024/03/05 10:10:18;;;;;;;46.03;26.88;;;10.80;99.90;;;;;;4937653;29;20181;-74
2024/03/05 10:12:44;;;;;;;40.97;26.40;;;10.90;99.90;;;;;;4943311;29;20220;-73
2024/03/05 10:15:17;;;;;;;38.97;24.07;;;10.90;99.90;;;;;;4939217;29;20232;-74
2024/03/05 10:17:50;;;;;;;41.75;27.50;;;11.00;99.90;;;;;;4916351;29;20644;-73
2024/03/05 10:20:36;;;;;;;39.65;24.65;;;11.00;99.90;;;;;;4928837;29;20541;-74
2024/03/05 10:23:04;;;;;;;37.25;23.95;;;11.10;99.90;;;;;;4919994;29;20196;-73
2024/03/05 10:25:32;;;;;;;41.95;23.45;;;11.10;99.90;;;;;;4932542;29;20201;-74
2024/03/05 10:27:59;;;;;;;37.90;25.02;;;11.20;99.90;;;;;;4948648;29;20533;-74
2024/03/05 10:30:35;;;;;;;41.35;26.65;;;11.20;99.90;;;;;;4931913;29;20169;-74
2024/03/05 10:33:03;;;;;;;37.55;25.85;;;11.20;99.90;;;;;;4933844;29;20188;-74
2024/03/05 10:35:31;;;;;;;37.58;25.27;;;11.30;99.90;;;;;;4933618;29;20204;-75
2024/03/05 10:37:57;;;;;;;36.80;24.85;;;11.30;99.90;;;;;;4935274;29;20200;-74
2024/03/05 10:40:24;;;;;;;43.00;26.40;;;11.40;99.90;;;;;;4933855;29;20185;-74
2024/03/05 10:42:52;;;;;;;40.53;26.58;;;11.40;99.90;;;;;;4932653;29;20200;-75
2024/03/05 10:45:23;;;;;;;34.78;22.52;;;11.50;99.90;;;;;;4933776;29;20205;-74
2024/03/05 10:47:50;;;;;;;37.70;24.45;;;11.50;99.90;;;;;;4939260;29;20181;-74
2024/03/05 10:50:18;;;;;;;34.28;23.45;;;11.50;99.90;;;;;;4931669;29;20191;-74
2024/03/05 10:52:45;;;;;;;40.65;24.25;;;11.50;99.90;;;;;;4933012;29;20191;-74
2024/03/05 10:55:12;;;;;;;33.67;23.30;;;11.60;99.90;;;;;;4916217;29;20201;-74
2024/03/05 11:00:26;;;;;;;38.85;22.42;;;11.60;99.90;;;;;;4948348;29;20699;-75
2024/03/05 11:03:08;;;;;;;28.83;21.63;;;11.70;99.90;;;;;;4932611;29;20217;-75
2024/03/05 11:05:44;;;;;;;37.17;22.10;;;11.70;99.90;;;;;;4932274;29;20201;-74
2024/03/05 11:08:12;;;;;;;30.27;21.67;;;11.70;99.90;;;;;;4932285;29;20204;-74
2024/03/05 11:10:41;;;;;;;32.75;22.25;;;11.70;99.90;;;;;;4933425;29;20187;-74
2024/03/05 11:13:10;;;;;;;28.48;19.15;;;11.80;99.90;;;;;;4933899;29;20177;-75
2024/03/05 11:15:37;;;;;;;30.83;19.98;;;11.80;99.90;;;;;;4933618;29;20571;-75
2024/03/05 11:18:02;;;;;;;26.73;17.15;;;11.80;99.90;;;;;;4934084;29;20212;-74
2024/03/05 11:20:40;;;;;;;26.13;16.40;;;11.80;99.90;;;;;;4935725;29;20216;-74
2024/03/05 11:23:11;;;;;;;27.27;18.75;;;11.80;99.90;;;;;;4952064;29;20596;-75
2024/03/05 11:25:44;;;;;;;25.40;17.55;;;11.80;99.90;;;;;;4935971;29;20310;-75
2024/03/05 11:28:11;;;;;;;27.80;18.33;;;11.80;99.90;;;;;;4935829;29;20181;-75
2024/03/05 11:30:37;;;;;;;26.52;16.88;;;11.90;99.90;;;;;;4937147;29;20177;-74
2024/03/05 11:33:09;;;;;;;22.73;16.25;;;11.80;99.90;;;;;;4936477;29;20177;-74
2024/03/05 11:35:43;;;;;;;28.73;18.40;;;11.80;99.90;;;;;;4935371;29;20582;-75
2024/03/05 11:38:13;;;;;;;23.38;16.20;;;11.80;99.90;;;;;;4935108;29;20224;-75
2024/03/05 11:40:40;;;;;;;24.63;15.88;;;11.80;99.90;;;;;;4937026;29;20183;-75
2024/03/05 11:43:06;;;;;;;30.23;18.50;;;11.80;99.90;;;;;;4937490;29;20184;-76
2024/03/05 11:45:48;;;;;;;24.10;16.92;;;11.80;99.90;;;;;;4958347;28;20184;-75
2024/03/05 11:48:18;;;;;;;20.75;15.57;;;11.80;99.90;;;;;;4935776;29;20181;-75
2024/03/05 11:50:50;;;;;;;21.65;17.05;;;11.80;99.90;;;;;;4950999;29;20616;-76
2024/03/05 11:53:16;;;;;;;21.13;15.52;;;11.80;99.90;;;;;;4935532;29;20205;-76
2024/03/05 11:55:42;;;;;;;21.30;14.83;;;11.80;99.90;;;;;;4949593;29;20599;-75
2024/03/05 11:58:10;;;;;;;17.48;15.15;;;11.80;99.90;;;;;;4933481;29;20268;-75
2024/03/05 12:00:37;;;;;;;20.30;14.52;;;11.80;99.90;;;;;;4934778;29;20584;-76
2024/03/05 12:03:03;;;;;;;20.10;15.40;;;11.90;99.90;;;;;;4941356;29;20177;-75
2024/03/05 12:05:30;;;;;;;19.58;13.68;;;11.80;99.90;;;;;;4934737;29;20200;-76
2024/03/05 12:08:07;;;;;;;18.65;13.68;;;11.90;99.90;;;;;;4933599;29;20580;-75
2024/03/05 12:10:39;;;;;;;19.40;13.82;;;11.90;99.90;;;;;;4935130;29;20191;-76
2024/03/05 12:13:05;;;;;;;15.77;13.23;;;11.90;99.90;;;;;;4936381;29;20252;-75
2024/03/05 12:15:34;;;;;;;18.70;14.88;;;12.00;99.90;;;;;;4942745;29;20263;-76
2024/03/05 12:18:10;;;;;;;18.33;15.00;;;12.00;99.90;;;;;;4926752;29;20220;-75
2024/03/05 12:20:38;;;;;;;19.55;14.25;;;12.10;99.90;;;;;;4936396;29;20223;-76
2024/03/05 12:23:05;;;;;;;20.77;15.13;;;12.20;99.90;;;;;;4919295;29;20165;-75
2024/03/05 12:25:31;;;;;;;18.23;14.75;;;12.30;99.90;;;;;;4934893;29;20193;-75
2024/03/05 12:28:00;;;;;;;21.20;14.55;;;12.30;99.90;;;;;;4935056;29;20239;-75
2024/03/05 12:30:32;;;;;;;16.58;13.98;;;12.40;99.90;;;;;;4903122;29;20169;-76
2024/03/05 12:32:58;;;;;;;21.55;16.77;;;12.50;99.90;;;;;;4935696;29;20718;-75
2024/03/05 12:35:25;;;;;;;19.00;14.53;;;12.50;99.90;;;;;;4934689;29;20232;-76
2024/03/05 12:37:51;;;;;;;18.48;14.48;;;12.50;99.90;;;;;;4950500;29;20670;-75
2024/03/05 12:40:22;;;;;;;15.15;12.40;;;12.50;99.90;;;;;;4934899;29;20225;-76